WS65 weather

Wausau Hospital Center Heliport
Wausau, Wisconsin, United States

Public forecast

Using degrees Fahrenheit for public forecast. Weather courtesy of forecast.io.

METAR (pilot weather report)

Closest report is Wausau Downtown Airport, 3.0 nm (5.6 km) SE. Retrieved 2019/08/23 08:54 UTC (1 hour ago):

KAUW 230854Z AUTO 00000KT 10SM CLR 10/09 A3021 RMK AO2 SLP233 T01000089 53010

TAF (pilot weather forecast)

Closest forecast is Wausau Downtown Airport, 3.0 nm (5.6 km) SE. Retrieved 2019/08/23 06:22 UTC (4 hours ago):

TAF KAUW 230520Z 2306/2406 07004KT P6SM SKC TEMPO 2308/2312 3SM BR FM231500 08005KT P6SM SCT040 FM232100 12006KT P6SM SCT050 FM240100 VRB03KT P6SM SKC